Time;durP1;ratioP1;P1;durP2;ratioP2;P2;SDS_P1;SDS_P2;PMS_P1;PMS_P2;Temp;Humidity;BMP_temperature;BMP_pressure;BME280_temperature;BME280_humidity;BME280_pressure;Samples;Min_cycle;Max_cycle;Signal;HPM_P1;HPM_P2
2022/11/04 00:02:35;;;;;;;2.70;1.58;;;;;;;9.79;100.00;100217.59;7375344;19;20007;-70
2022/11/04 00:05:06;;;;;;;3.92;1.27;;;;;;;9.78;100.00;100217.56;7378402;19;20019;-68
2022/11/04 00:12:23;;;;;;;3.03;1.48;;;;;;;9.74;100.00;100219.28;7379983;19;20029;-70
2022/11/04 00:13:05;;;;;;;2.83;1.88;;;;;;;9.74;100.00;100234.13;7376087;19;20094;-70
2022/11/04 00:18:22;;;;;;;2.67;1.60;;;;;;;9.74;100.00;100236.75;7376963;19;20018;-70
2022/11/04 00:28:58;;;;;;;5.43;1.27;;;;;;;9.77;100.00;100248.13;7380869;19;20021;-71
2022/11/04 00:34:13;;;;;;;6.35;1.90;;;;;;;9.65;100.00;100257.63;7381967;19;20026;-71
2022/11/04 00:36:42;;;;;;;8.88;1.80;;;;;;;9.60;100.00;100264.56;7373586;19;20026;-71
2022/11/04 00:39:12;;;;;;;2.58;1.40;;;;;;;9.55;100.00;100258.41;7378527;19;20109;-71
2022/11/04 00:41:42;;;;;;;4.18;1.52;;;;;;;9.54;100.00;100254.94;7371914;19;20014;-71
2022/11/04 00:44:11;;;;;;;3.03;1.60;;;;;;;9.55;100.00;100259.28;7375253;19;20018;-71
2022/11/04 00:46:41;;;;;;;2.95;1.45;;;;;;;9.63;100.00;100265.47;7371938;19;20025;-71
2022/11/04 00:49:14;;;;;;;2.88;1.63;;;;;;;9.60;100.00;100267.19;7375438;19;20014;-71
2022/11/04 00:51:44;;;;;;;4.97;1.42;;;;;;;9.64;100.00;100268.97;7375291;19;20397;-71
2022/11/04 00:54:14;;;;;;;5.38;2.10;;;;;;;9.62;100.00;100271.56;7378362;19;20115;-71
2022/11/04 00:56:44;;;;;;;6.57;1.70;;;;;;;9.59;100.00;100283.75;7376173;19;20014;-71
2022/11/04 00:59:14;;;;;;;6.85;2.40;;;;;;;9.55;100.00;100282.84;7376912;19;20018;-71
2022/11/04 01:01:45;;;;;;;8.82;2.38;;;;;;;9.52;100.00;100294.19;7373880;19;20021;-70
2022/11/04 01:04:18;;;;;;;7.10;2.15;;;;;;;9.56;100.00;100292.47;7376821;19;20055;-70
2022/11/04 01:06:47;;;;;;;4.43;2.13;;;;;;;9.52;100.00;100291.56;7372648;19;20454;-69
2022/11/04 01:09:17;;;;;;;5.20;1.95;;;;;;;9.50;100.00;100292.41;7378411;19;20015;-69
2022/11/04 01:11:48;;;;;;;5.00;2.08;;;;;;;9.47;100.00;100295.88;7374485;19;20015;-69
2022/11/04 01:14:17;;;;;;;6.35;2.35;;;;;;;9.45;100.00;100297.59;7374930;19;20022;-69
2022/11/04 01:16:48;;;;;;;5.53;2.53;;;;;;;9.40;100.00;100314.13;7374039;19;20015;-69
2022/11/04 01:19:21;;;;;;;3.90;2.10;;;;;;;9.34;100.00;100330.69;7376673;19;20633;-69
2022/11/04 01:21:53;;;;;;;3.83;1.80;;;;;;;9.31;100.00;100330.66;7374216;19;20106;-70
2022/11/04 01:24:22;;;;;;;3.88;2.00;;;;;;;9.24;100.00;100339.28;7377228;19;20014;-70
2022/11/04 01:26:52;;;;;;;4.80;1.95;;;;;;;9.18;100.00;100337.50;7372360;19;20022;-70
2022/11/04 01:29:22;;;;;;;8.10;1.92;;;;;;;9.21;100.00;100336.66;7372945;19;20015;-70
2022/11/04 01:31:51;;;;;;;6.05;2.20;;;;;;;9.16;100.00;100333.09;7374432;19;20018;-69
2022/11/04 01:34:24;;;;;;;5.32;1.60;;;;;;;9.05;100.00;100332.09;7371419;19;20331;-70
2022/11/04 01:36:53;;;;;;;6.65;2.00;;;;;;;9.04;100.00;100335.59;7367859;19;20682;-70
2022/11/04 01:39:23;;;;;;;4.95;1.77;;;;;;;8.99;100.00;100330.28;7371984;19;20014;-69
2022/11/04 01:41:53;;;;;;;4.75;1.80;;;;;;;8.97;100.00;100336.38;7371908;19;20022;-70
2022/11/04 01:44:49;;;;;;;4.20;1.80;;;;;;;8.91;100.00;100349.38;7367380;19;20098;-70
2022/11/04 01:47:21;;;;;;;3.25;1.52;;;;;;;8.91;100.00;100354.59;7369855;19;20010;-69
2022/11/04 01:49:57;;;;;;;4.00;1.75;;;;;;;8.88;100.00;100367.63;7366030;19;20699;-70
2022/11/04 01:52:32;;;;;;;6.85;2.33;;;;;;;8.83;100.00;100371.06;7371272;19;20444;-70
2022/11/04 01:55:08;;;;;;;5.18;2.15;;;;;;;8.85;100.00;100369.34;7370663;19;20015;-69
2022/11/04 01:57:43;;;;;;;5.93;1.67;;;;;;;8.85;100.00;100366.75;7375035;19;20011;-70
2022/11/04 02:00:14;;;;;;;4.65;1.75;;;;;;;8.83;100.00;100364.97;7375863;19;20039;-70
2022/11/04 02:02:52;;;;;;;3.50;1.50;;;;;;;8.85;100.00;100358.91;7377409;19;20025;-70
2022/11/04 02:05:25;;;;;;;4.03;2.03;;;;;;;8.88;100.00;100370.25;7375729;19;20013;-70
2022/11/04 02:07:57;;;;;;;1.60;1.50;;;;;;;8.92;100.00;100369.44;7379849;19;20087;-70
2022/11/04 02:10:30;;;;;;;2.60;1.70;;;;;;;8.91;100.00;100370.28;7379630;19;20538;-70
2022/11/04 02:13:02;;;;;;;3.33;1.63;;;;;;;8.93;100.00;100374.69;7381951;19;20676;-70
2022/11/04 02:15:39;;;;;;;4.65;2.20;;;;;;;8.95;100.00;100372.97;7380737;19;20025;-70
2022/11/04 02:18:38;;;;;;;8.13;2.40;;;;;;;8.97;100.00;100362.53;7377898;19;20025;-70
2022/11/04 02:21:38;;;;;;;4.80;2.28;;;;;;;8.98;100.00;100377.34;7375586;19;20011;-69
2022/11/04 02:24:46;;;;;;;6.10;2.38;;;;;;;8.97;100.00;100373.88;7371688;19;20012;-69
2022/11/04 02:27:37;;;;;;;6.88;2.25;;;;;;;8.94;100.00;100373.81;7375270;19;20018;-71
2022/11/04 02:30:12;;;;;;;4.97;2.50;;;;;;;8.92;100.00;100377.28;7374370;19;20017;-70
2022/11/04 02:33:10;;;;;;;5.75;2.53;;;;;;;8.85;100.00;100385.03;7376896;19;20027;-70
2022/11/04 02:35:47;;;;;;;4.07;2.17;;;;;;;8.83;100.00;100381.53;7376311;19;20011;-70
2022/11/04 02:38:27;;;;;;;4.88;2.13;;;;;;;8.73;100.00;100377.03;7370107;19;20010;-70
2022/11/04 02:41:06;;;;;;;6.00;2.50;;;;;;;8.73;100.00;100378.78;7372210;19;20015;-70
2022/11/04 02:43:45;;;;;;;4.88;2.53;;;;;;;8.69;100.00;100377.84;7373994;19;20018;-70
2022/11/04 02:46:22;;;;;;;5.75;2.70;;;;;;;8.65;100.00;100381.28;7374525;19;20026;-70
2022/11/04 02:49:01;;;;;;;6.80;3.25;;;;;;;8.60;100.00;100382.09;7373807;19;20025;-70
2022/11/04 02:51:34;;;;;;;7.43;3.65;;;;;;;8.54;100.00;100377.66;7373855;19;20010;-70
2022/11/04 02:54:10;;;;;;;6.97;3.67;;;;;;;8.52;100.00;100376.75;7376168;19;20021;-69
2022/11/04 02:56:46;;;;;;;10.90;4.38;;;;;;;8.49;100.00;100376.69;7374277;19;20007;-70
2022/11/04 02:59:19;;;;;;;10.52;4.63;;;;;;;8.51;100.00;100385.44;7375719;19;20311;-70
2022/11/04 03:01:54;;;;;;;12.70;5.47;;;;;;;8.47;100.00;100378.41;7376475;19;20082;-70
2022/11/04 03:04:30;;;;;;;12.95;5.50;;;;;;;8.46;100.00;100376.66;7376288;19;20014;-70
2022/11/04 03:07:02;;;;;;;19.25;6.88;;;;;;;8.42;100.00;100377.47;7374317;19;20011;-70
2022/11/04 03:09:34;;;;;;;14.13;6.15;;;;;;;8.38;100.00;100379.16;7370287;19;20014;-70
2022/11/04 03:12:06;;;;;;;14.75;7.38;;;;;;;8.39;100.00;100382.66;7372655;19;20014;-70
2022/11/04 03:14:40;;;;;;;17.40;8.10;;;;;;;8.34;100.00;100377.34;7371908;19;20021;-70
2022/11/04 03:17:19;;;;;;;16.90;7.78;;;;;;;8.32;100.00;100386.03;7372726;19;20023;-70
2022/11/04 03:19:55;;;;;;;22.75;8.15;;;;;;;8.31;100.00;100386.88;7368713;19;20018;-70
2022/11/04 03:22:28;;;;;;;16.60;7.93;;;;;;;8.29;100.00;100388.59;7371971;19;20021;-70
2022/11/04 03:24:59;;;;;;;17.60;7.53;;;;;;;8.28;100.00;100389.44;7372430;19;20022;-70
2022/11/04 03:27:36;;;;;;;17.25;7.78;;;;;;;8.25;100.00;100384.19;7374299;19;20018;-70
2022/11/04 03:30:10;;;;;;;24.33;8.75;;;;;;;8.25;100.00;100394.63;7372816;19;20022;-70
2022/11/04 03:32:50;;;;;;;18.77;8.10;;;;;;;8.23;100.00;100402.44;7371588;19;20014;-70
2022/11/04 03:35:20;;;;;;;22.15;9.38;;;;;;;8.20;100.00;100400.66;7370256;19;20011;-70
2022/11/04 03:37:50;;;;;;;20.75;8.68;;;;;;;8.18;100.00;100398.88;7373639;19;20014;-71
2022/11/04 03:40:22;;;;;;;17.92;7.85;;;;;;;8.16;100.00;100408.41;7368821;19;20011;-70
2022/11/04 03:42:57;;;;;;;20.80;8.85;;;;;;;8.14;100.00;100412.75;7371094;19;20014;-70
2022/11/04 03:45:27;;;;;;;21.98;9.02;;;;;;;8.14;100.00;100418.84;7371495;19;20002;-70
2022/11/04 03:48:00;;;;;;;18.30;8.32;;;;;;;8.11;100.00;100413.56;7370237;19;20078;-70
2022/11/04 03:50:32;;;;;;;19.92;8.13;;;;;;;8.10;100.00;100424.88;7373966;19;20083;-71
2022/11/04 03:53:02;;;;;;;23.52;8.52;;;;;;;8.08;100.00;100417.88;7369177;19;20022;-71
2022/11/04 03:55:44;;;;;;;17.20;7.22;;;;;;;8.06;100.00;100415.22;7372399;19;20010;-71
2022/11/04 03:58:27;;;;;;;15.38;7.32;;;;;;;8.04;100.00;100427.38;7369570;19;20022;-71
2022/11/04 04:01:05;;;;;;;17.88;7.90;;;;;;;8.06;100.00;100420.44;7369954;19;20026;-70
2022/11/04 04:03:42;;;;;;;19.40;7.57;;;;;;;8.05;100.00;100431.75;7372987;19;20014;-71
2022/11/04 04:06:19;;;;;;;14.70;6.97;;;;;;;8.03;100.00;100429.97;7368893;19;20025;-71
2022/11/04 04:08:54;;;;;;;15.77;7.25;;;;;;;8.01;100.00;100423.84;7371585;19;20014;-70
2022/11/04 04:11:38;;;;;;;15.35;6.97;;;;;;;8.00;100.00;100430.78;7370880;19;20015;-70
2022/11/04 04:14:37;;;;;;;15.25;6.78;;;;;;;7.98;100.00;100442.06;7371727;19;20015;-71
2022/11/04 04:17:07;;;;;;;15.05;6.43;;;;;;;7.92;100.00;100442.84;7367239;19;20047;-70
2022/11/04 04:19:40;;;;;;;14.95;6.65;;;;;;;7.90;100.00;100441.94;7370982;19;20048;-70
2022/11/04 04:22:16;;;;;;;15.07;6.32;;;;;;;7.86;100.00;100448.81;7369407;19;20025;-70
2022/11/04 04:27:34;;;;;;;10.25;5.05;;;;;;;7.79;100.00;100456.53;7367525;19;20012;-70
2022/11/04 04:30:08;;;;;;;12.98;6.03;;;;;;;7.73;100.00;100461.63;7371141;19;20018;-70
2022/11/04 04:32:42;;;;;;;12.65;6.43;;;;;;;7.74;100.00;100464.28;7370219;19;20010;-70
2022/11/04 04:44:58;;;;;;;14.98;6.93;;;;;;;7.66;100.00;100464.97;7373671;19;20011;-70
2022/11/04 04:46:21;;;;;;;;;;;;;;;7.54;100.00;100466.50;7375935;19;20027;-70
2022/11/04 04:48:51;;;;;;;19.58;6.47;;;;;;;7.51;100.00;100470.78;7374798;19;19921;-70
2022/11/04 04:51:24;;;;;;;16.23;7.22;;;;;;;7.47;100.00;100474.16;7373887;19;20014;-70
2022/11/04 04:53:53;;;;;;;12.57;6.53;;;;;;;7.42;100.00;100475.81;7373142;19;20632;-70
2022/11/04 04:56:23;;;;;;;13.32;6.68;;;;;;;7.38;100.00;100485.31;7376222;19;20006;-70
2022/11/04 04:58:52;;;;;;;14.93;7.90;;;;;;;7.34;100.00;100480.88;7372603;19;20035;-70
2022/11/04 05:01:22;;;;;;;16.42;7.38;;;;;;;7.33;100.00;100491.28;7377233;19;20010;-70
2022/11/04 05:03:52;;;;;;;17.45;7.50;;;;;;;7.31;100.00;100493.84;7376555;19;20062;-70
2022/11/04 05:06:24;;;;;;;13.70;7.30;;;;;;;7.27;100.00;100492.06;7375874;19;20050;-70
2022/11/04 05:08:54;;;;;;;13.25;7.38;;;;;;;7.24;100.00;100498.94;7370721;19;20007;-70
2022/11/04 05:11:24;;;;;;;14.85;6.97;;;;;;;7.21;100.00;100502.38;7370124;19;20026;-70
2022/11/04 05:13:56;;;;;;;13.27;6.63;;;;;;;7.18;100.00;100499.69;7371754;19;20022;-70
2022/11/04 05:16:25;;;;;;;17.73;7.80;;;;;;;7.18;100.00;100503.19;7368922;19;20014;-70
2022/11/04 05:18:55;;;;;;;14.65;6.72;;;;;;;7.16;100.00;100497.06;7363783;19;20010;-71
2022/11/04 05:21:27;;;;;;;12.82;6.75;;;;;;;7.16;100.00;100507.47;7371955;19;20014;-70
2022/11/04 05:23:57;;;;;;;16.13;7.47;;;;;;;7.14;100.00;100510.91;7368367;19;20014;-70
2022/11/04 05:26:27;;;;;;;12.57;6.45;;;;;;;7.11;100.00;100524.75;7375168;19;20014;-70
2022/11/04 05:28:56;;;;;;;16.38;6.65;;;;;;;7.11;100.00;100531.69;7371066;19;20025;-70
2022/11/04 05:31:27;;;;;;;19.27;8.02;;;;;;;7.10;100.00;100541.25;7379311;19;20026;-70
2022/11/04 05:33:57;;;;;;;13.90;7.60;;;;;;;7.14;100.00;100536.97;7383050;19;20022;-70
2022/11/04 05:36:31;;;;;;;21.17;8.35;;;;;;;7.18;100.00;100544.03;7375072;19;20101;-70
2022/11/04 05:39:01;;;;;;;16.42;8.02;;;;;;;7.22;100.00;100538.91;7378803;19;20628;-71
2022/11/04 05:41:31;;;;;;;19.15;8.25;;;;;;;7.25;100.00;100545.03;7376766;19;20023;-71
2022/11/04 05:44:02;;;;;;;21.25;9.15;;;;;;;7.26;100.00;100550.28;7376783;19;20030;-71
2022/11/04 05:46:33;;;;;;;16.02;7.30;;;;;;;7.30;100.00;100551.22;7380286;19;20038;-71
2022/11/04 05:49:02;;;;;;;16.48;7.80;;;;;;;7.34;100.00;100553.03;7382591;19;20474;-71
2022/11/04 05:51:35;;;;;;;18.73;8.68;;;;;;;7.39;100.00;100549.69;7381237;19;20011;-71
2022/11/04 05:54:05;;;;;;;15.75;8.65;;;;;;;7.46;100.00;100559.41;7379595;19;20042;-71
2022/11/04 05:56:34;;;;;;;18.00;7.43;;;;;;;7.47;100.00;100555.94;7376922;19;20018;-71
2022/11/04 05:59:04;;;;;;;15.15;7.70;;;;;;;7.52;100.00;100556.91;7374080;19;20042;-71
2022/11/04 06:01:35;;;;;;;17.50;8.85;;;;;;;7.61;100.00;100557.97;7376377;19;20022;-71
2022/11/04 06:04:06;;;;;;;20.30;8.77;;;;;;;7.65;100.00;100558.06;7373821;19;20555;-71
2022/11/04 06:06:38;;;;;;;16.85;8.35;;;;;;;7.68;100.00;100563.34;7372454;19;20018;-71
2022/11/04 06:09:08;;;;;;;17.00;8.18;;;;;;;7.69;100.00;100564.22;7375383;19;20022;-71
2022/11/04 06:11:39;;;;;;;17.02;9.38;;;;;;;7.75;100.00;100560.00;7375709;19;20021;-71
2022/11/04 06:14:08;;;;;;;17.35;8.25;;;;;;;7.79;100.00;100563.56;7374607;19;20003;-71
2022/11/04 06:16:44;;;;;;;18.75;8.77;;;;;;;7.77;100.00;100560.91;7376941;19;20014;-71
2022/11/04 06:19:14;;;;;;;19.20;9.15;;;;;;;7.75;100.00;100554.78;7368199;19;20010;-71
2022/11/04 06:21:48;;;;;;;15.75;8.18;;;;;;;7.73;100.00;100563.44;7377933;19;20018;-71
2022/11/04 06:24:17;;;;;;;17.98;8.68;;;;;;;7.72;100.00;100561.66;7376619;19;20018;-71
2022/11/04 06:26:48;;;;;;;18.83;9.93;;;;;;;7.72;100.00;100559.06;7374250;19;20011;-71
2022/11/04 06:29:17;;;;;;;19.73;10.70;;;;;;;7.70;100.00;100560.75;7374914;19;20011;-70
2022/11/04 06:31:47;;;;;;;20.60;9.65;;;;;;;7.68;100.00;100567.69;7373823;19;20022;-71
2022/11/04 06:34:17;;;;;;;17.92;9.88;;;;;;;7.64;100.00;100573.69;7377335;19;20022;-70
2022/11/04 06:36:50;;;;;;;18.58;8.77;;;;;;;7.63;100.00;100575.41;7372940;19;20002;-71
2022/11/04 06:39:20;;;;;;;19.42;9.43;;;;;;;7.64;100.00;100568.47;7371033;19;20017;-70
2022/11/04 06:41:50;;;;;;;19.88;9.90;;;;;;;7.61;100.00;100571.00;7371003;19;20022;-70
2022/11/04 06:44:21;;;;;;;17.40;8.77;;;;;;;7.59;100.00;100567.50;7371646;19;20047;-70
2022/11/04 06:46:51;;;;;;;16.40;8.50;;;;;;;7.57;100.00;100569.19;7369815;19;20021;-70
2022/11/04 06:49:22;;;;;;;15.15;7.85;;;;;;;7.53;100.00;100576.94;7372483;19;20090;-70
2022/11/04 06:51:55;;;;;;;15.23;8.20;;;;;;;7.54;100.00;100570.88;7375532;19;20031;-70
2022/11/04 06:54:24;;;;;;;16.33;8.23;;;;;;;7.58;100.00;100581.38;7373444;19;20018;-70
2022/11/04 06:56:54;;;;;;;18.42;7.97;;;;;;;7.62;100.00;100573.66;7379178;19;20007;-70
2022/11/04 06:59:24;;;;;;;20.58;8.00;;;;;;;7.68;100.00;100579.00;7378348;19;20122;-70
2022/11/04 07:01:54;;;;;;;18.00;8.50;;;;;;;7.70;100.00;100579.91;7382459;19;20006;-70
2022/11/04 07:04:23;;;;;;;16.60;7.75;;;;;;;7.71;100.00;100584.28;7377648;19;20015;-71
2022/11/04 07:06:56;;;;;;;17.00;8.23;;;;;;;7.72;100.00;100587.78;7380131;19;20011;-70
2022/11/04 07:09:25;;;;;;;16.42;7.93;;;;;;;7.70;100.00;100586.88;7375681;19;20010;-70
2022/11/04 07:11:55;;;;;;;19.05;8.38;;;;;;;7.70;100.00;100594.69;7376605;19;20022;-70
2022/11/04 07:14:24;;;;;;;14.82;7.68;;;;;;;7.72;100.00;100601.72;7377904;19;20018;-70
2022/11/04 07:16:54;;;;;;;20.05;8.18;;;;;;;7.74;100.00;100604.34;7377633;19;20021;-70
2022/11/04 07:19:24;;;;;;;17.17;7.53;;;;;;;7.77;100.00;100600.06;7378761;19;20003;-70
2022/11/04 07:21:56;;;;;;;17.48;8.10;;;;;;;7.76;100.00;100602.66;7377805;19;20363;-70
2022/11/04 07:24:26;;;;;;;13.73;7.70;;;;;;;7.77;100.00;100609.63;7376441;19;20006;-70
2022/11/04 07:26:56;;;;;;;14.40;7.18;;;;;;;7.77;100.00;100620.06;7375549;19;20561;-70
2022/11/04 07:29:27;;;;;;;17.25;8.07;;;;;;;7.80;100.00;100621.03;7378979;19;20006;-70
2022/11/04 07:31:57;;;;;;;19.33;8.10;;;;;;;7.84;100.00;100635.03;7371255;19;20019;-70
2022/11/04 07:34:27;;;;;;;15.48;7.75;;;;;;;7.86;100.00;100635.94;7378157;19;20640;-70
2022/11/04 07:36:59;;;;;;;15.90;8.63;;;;;;;7.98;100.00;100641.41;7374174;19;20010;-70
2022/11/04 07:39:29;;;;;;;17.98;8.68;;;;;;;8.00;100.00;100644.06;7372962;19;20017;-70
2022/11/04 07:41:59;;;;;;;20.40;9.00;;;;;;;8.05;100.00;100643.31;7379418;19;20345;-70
2022/11/04 07:44:30;;;;;;;17.90;8.80;;;;;;;8.09;100.00;100649.47;7382846;19;20085;-70
2022/11/04 07:47:00;;;;;;;20.80;9.55;;;;;;;8.14;100.00;100648.72;7380382;19;20019;-70
2022/11/04 07:49:29;;;;;;;17.45;9.40;;;;;;;8.17;100.00;100643.53;7380603;19;20015;-70
2022/11/04 07:52:01;;;;;;;17.55;9.18;;;;;;;8.23;100.00;100652.34;7376182;19;20034;-70
2022/11/04 07:54:31;;;;;;;23.40;10.48;;;;;;;8.24;100.00;100660.22;7371194;19;20049;-69
2022/11/04 07:57:01;;;;;;;16.45;9.43;;;;;;;8.27;100.00;100659.41;7374873;19;20019;-70
2022/11/04 07:59:30;;;;;;;19.30;9.07;;;;;;;8.30;100.00;100664.69;7374461;19;20010;-70
2022/11/04 08:02:00;;;;;;;18.63;9.25;;;;;;;8.32;100.00;100665.59;7368555;19;20014;-70
2022/11/04 08:04:30;;;;;;;21.58;10.65;;;;;;;8.35;100.00;100674.38;7371750;19;20041;-70
2022/11/04 08:07:06;;;;;;;21.75;9.70;;;;;;;8.40;100.00;100674.47;7370681;19;20010;-70
2022/11/04 08:09:35;;;;;;;20.48;10.45;;;;;;;8.44;100.00;100673.69;7372734;19;20011;-70
2022/11/04 08:12:06;;;;;;;23.70;10.45;;;;;;;8.49;100.00;100687.72;7375361;19;20015;-70
2022/11/04 08:14:36;;;;;;;20.25;9.65;;;;;;;8.54;100.00;100691.31;7371161;19;20014;-70
2022/11/04 08:17:05;;;;;;;20.10;9.73;;;;;;;8.55;100.00;100697.41;7374191;19;20561;-70
2022/11/04 08:19:35;;;;;;;19.67;9.98;;;;;;;8.56;100.00;100697.44;7373728;19;20006;-70
2022/11/04 08:22:07;;;;;;;20.70;10.15;;;;;;;8.61;100.00;100700.13;7374566;19;20010;-70
2022/11/04 08:24:37;;;;;;;18.42;9.93;;;;;;;8.63;100.00;100703.66;7377738;19;20025;-70
2022/11/04 08:27:08;;;;;;;23.48;10.20;;;;;;;8.65;100.00;100700.22;7376257;19;20014;-70
2022/11/04 08:29:38;;;;;;;22.88;11.32;;;;;;;8.69;100.00;100703.78;7369976;19;20022;-70
2022/11/04 08:32:09;;;;;;;21.73;10.13;;;;;;;8.73;100.00;100708.22;7370272;19;20026;-70
2022/11/04 08:34:38;;;;;;;27.05;13.75;;;;;;;8.78;100.00;100710.06;7367593;19;20025;-70
2022/11/04 08:37:11;;;;;;;23.00;11.88;;;;;;;8.82;100.00;100714.50;7371799;19;20027;-70
2022/11/04 08:39:40;;;;;;;27.45;10.85;;;;;;;8.91;100.00;100710.28;7368984;19;20025;-70
2022/11/04 08:42:10;;;;;;;21.73;11.52;;;;;;;8.97;100.00;100719.13;7369575;19;20014;-70
2022/11/04 08:44:41;;;;;;;28.02;13.32;;;;;;;9.11;100.00;100706.28;7370503;19;20041;-70
2022/11/04 08:47:11;;;;;;;25.13;11.85;;;;;;;9.22;100.00;100715.19;7371929;19;20029;-70
2022/11/04 08:49:41;;;;;;;29.25;13.90;;;;;;;9.27;100.00;100717.88;7372893;19;20025;-70
2022/11/04 08:52:13;;;;;;;26.23;13.40;;;;;;;9.34;100.00;100720.63;7367609;19;20022;-71
2022/11/04 08:54:44;;;;;;;29.35;14.25;;;;;;;9.45;100.00;100723.38;7375907;19;20018;-70
2022/11/04 08:57:13;;;;;;;26.45;14.48;;;;;;;9.49;100.00;100723.47;7374745;19;20025;-70
2022/11/04 08:59:43;;;;;;;31.77;15.88;;;;;;;9.60;100.00;100728.88;7372356;19;20022;-71
2022/11/04 09:02:16;;;;;;;36.85;16.00;;;;;;;9.76;100.00;100730.84;7367836;19;20049;-71
2022/11/04 09:04:45;;;;;;;28.02;15.32;;;;;;;9.91;100.00;100730.19;7368289;19;20018;-71
2022/11/04 09:07:18;;;;;;;28.13;15.32;;;;;;;9.91;100.00;100735.44;7371786;19;20006;-71
2022/11/04 09:09:47;;;;;;;36.63;16.13;;;;;;;9.94;100.00;100732.84;7370865;19;20254;-71
2022/11/04 09:12:17;;;;;;;24.88;13.85;;;;;;;9.96;100.00;100738.13;7379983;19;20022;-70
2022/11/04 09:14:47;;;;;;;23.38;13.45;;;;;;;9.88;100.00;100738.00;7377377;19;20047;-70
2022/11/04 09:17:17;;;;;;;21.60;13.32;;;;;;;9.89;100.00;100742.41;7377984;19;20030;-70
2022/11/04 09:19:47;;;;;;;21.88;13.10;;;;;;;9.89;100.00;100747.63;7380036;19;20015;-70
2022/11/04 09:22:19;;;;;;;21.35;12.18;;;;;;;9.90;100.00;100752.00;7379112;19;20019;-69
2022/11/04 09:24:49;;;;;;;20.58;12.52;;;;;;;9.93;100.00;100748.56;7369119;19;20014;-69
2022/11/04 09:27:18;;;;;;;23.63;12.18;;;;;;;9.99;100.00;100754.78;7372234;19;20014;-69
2022/11/04 09:29:48;;;;;;;18.58;10.38;;;;;;;9.99;100.00;100749.53;7377005;19;20006;-69
2022/11/04 09:32:18;;;;;;;17.35;10.65;;;;;;;10.21;100.00;100761.22;7371469;19;20109;-70
2022/11/04 09:34:48;;;;;;;18.90;11.52;;;;;;;10.45;100.00;100763.25;7370928;19;20025;-70
2022/11/04 09:37:20;;;;;;;22.88;12.60;;;;;;;10.50;100.00;100766.81;7369965;19;20025;-70
2022/11/04 09:39:49;;;;;;;24.00;11.30;;;;;;;10.52;100.00;100775.56;7367708;19;20019;-70
2022/11/04 09:42:39;;;;;;;18.83;9.65;;;;;;;10.60;100.00;100775.66;7373368;19;20006;-70
2022/11/04 09:45:14;;;;;;;18.80;9.65;;;;;;;10.64;100.00;100777.47;7372538;19;20014;-70
2022/11/04 09:47:54;;;;;;;14.55;10.60;;;;;;;10.59;100.00;100777.41;7372588;19;20498;-70
2022/11/04 09:50:27;;;;;;;14.35;9.77;;;;;;;10.61;100.00;100794.03;7369331;19;20011;-70
2022/11/04 09:53:06;;;;;;;19.05;9.93;;;;;;;10.57;100.00;100796.59;7372689;19;20007;-70
2022/11/04 09:55:53;;;;;;;15.55;10.20;;;;;;;10.61;100.00;100793.16;7375551;19;20011;-69
2022/11/04 09:58:23;;;;;;;15.90;9.50;;;;;;;10.67;100.00;100794.13;7370016;19;20534;-70
2022/11/04 10:00:58;;;;;;;14.05;9.40;;;;;;;10.73;100.00;100794.19;7371178;19;20018;-69
2022/11/04 10:03:43;;;;;;;14.75;9.70;;;;;;;10.71;100.00;100803.78;7367814;19;20011;-69
2022/11/04 10:06:32;;;;;;;18.92;10.30;;;;;;;10.76;100.00;100809.09;7378225;19;20018;-70
2022/11/04 10:09:20;;;;;;;18.08;9.70;;;;;;;10.79;100.00;100817.88;7374975;19;20030;-69
2022/11/04 10:12:01;;;;;;;17.38;8.80;;;;;;;10.76;100.00;100832.69;7365490;19;20019;-70
2022/11/04 10:15:09;;;;;;;14.00;8.32;;;;;;;10.84;100.00;100838.03;7370528;19;20011;-69
2022/11/04 10:17:55;;;;;;;15.30;8.68;;;;;;;10.82;100.00;100846.78;7371418;19;20018;-70
2022/11/04 10:20:40;;;;;;;15.80;7.40;;;;;;;10.93;100.00;100846.03;7381236;19;20015;-69
2022/11/04 10:23:23;;;;;;;15.63;7.40;;;;;;;10.95;100.00;100852.16;7380871;19;20022;-70
2022/11/04 10:26:02;;;;;;;12.07;6.57;;;;;;;10.97;100.00;100860.94;7381630;19;20528;-70
2022/11/04 10:28:37;;;;;;;11.30;5.75;;;;;;;11.02;100.00;100854.88;7378949;19;20010;-70
2022/11/04 10:31:07;;;;;;;10.38;6.13;;;;;;;10.97;100.00;100859.19;7377825;19;20040;-70
2022/11/04 10:33:41;;;;;;;11.73;6.22;;;;;;;11.06;100.00;100856.69;7378517;19;20007;-70
2022/11/04 10:36:12;;;;;;;10.77;5.97;;;;;;;11.08;100.00;100861.94;7379013;19;20042;-70
2022/11/04 10:38:46;;;;;;;9.82;6.28;;;;;;;11.21;100.00;100863.84;7376487;19;20019;-70
2022/11/04 10:41:29;;;;;;;11.13;6.07;;;;;;;11.40;100.00;100857.03;7373923;19;20021;-70
2022/11/04 10:44:04;;;;;;;11.65;5.63;;;;;;;11.52;100.00;100862.38;7374273;19;20025;-70
2022/11/04 10:46:46;;;;;;;10.00;5.70;;;;;;;11.53;100.00;100872.03;7381691;19;20558;-71
2022/11/04 10:49:45;;;;;;;13.80;5.00;;;;;;;11.55;100.00;100878.19;7377387;19;20019;-70
2022/11/04 10:52:36;;;;;;;10.27;5.20;;;;;;;11.55;100.00;100879.94;7373824;19;20057;-70
2022/11/04 10:55:24;;;;;;;10.05;5.53;;;;;;;11.54;100.00;100884.28;7383590;19;20439;-70
2022/11/04 10:57:59;;;;;;;10.82;5.30;;;;;;;11.57;100.00;100886.06;7380473;19;20542;-71
2022/11/04 11:00:38;;;;;;;9.02;4.90;;;;;;;11.66;100.00;100889.66;7379658;19;20006;-72
2022/11/04 11:03:29;;;;;;;11.30;5.03;;;;;;;11.76;100.00;100893.25;7378114;19;20018;-71
2022/11/04 11:06:27;;;;;;;9.82;4.78;;;;;;;11.81;100.00;100898.59;7376019;19;20026;-72
2022/11/04 11:09:00;;;;;;;13.18;5.80;;;;;;;11.74;100.00;100895.88;7374289;19;20006;-72
2022/11/04 11:11:46;;;;;;;8.67;4.97;;;;;;;11.80;100.00;100902.97;7379416;19;20018;-72
2022/11/04 11:14:33;;;;;;;10.13;5.20;;;;;;;11.92;100.00;100903.09;7379292;19;20098;-72
2022/11/04 11:17:21;;;;;;;9.15;5.60;;;;;;;11.84;100.00;100910.03;7378378;19;20021;-72
2022/11/04 11:19:56;;;;;;;12.52;5.82;;;;;;;11.71;100.00;100909.00;7379298;19;20011;-72
2022/11/04 11:22:47;;;;;;;13.02;5.57;;;;;;;11.55;100.00;100924.56;7384592;19;20038;-71
2022/11/04 11:25:29;;;;;;;11.77;5.68;;;;;;;11.60;100.00;100939.53;7379227;19;20023;-72
2022/11/04 11:28:01;;;;;;;11.90;5.53;;;;;;;11.48;100.00;100948.16;7373938;19;20014;-70
2022/11/04 11:30:40;;;;;;;6.47;3.00;;;;;;;11.14;100.00;100951.25;7385859;19;20013;-70
2022/11/04 11:33:20;;;;;;;3.78;1.63;;;;;;;10.54;100.00;100960.03;7381550;19;20013;-70
2022/11/04 11:35:53;;;;;;;3.50;1.55;;;;;;;10.55;100.00;100950.44;7384815;19;20015;-71
2022/11/04 11:38:26;;;;;;;1.50;1.15;;;;;;;10.58;100.00;100951.34;7384194;19;20013;-72
2022/11/04 11:41:07;;;;;;;2.70;1.95;;;;;;;10.47;100.00;100953.81;7380192;19;20011;-71
2022/11/04 11:43:57;;;;;;;3.90;1.30;;;;;;;10.47;100.00;100953.81;7379063;19;20017;-71
2022/11/04 11:46:32;;;;;;;3.60;1.08;;;;;;;10.58;100.00;100958.34;7380621;19;20240;-71
2022/11/04 11:49:03;;;;;;;1.42;1.25;;;;;;;10.56;100.00;100962.69;7375139;19;20011;-71
2022/11/04 11:51:35;;;;;;;3.35;1.40;;;;;;;10.53;100.00;100967.88;7378657;19;20015;-70
2022/11/04 11:54:38;;;;;;;2.35;1.60;;;;;;;10.55;100.00;100974.91;7374129;19;20009;-72
2022/11/04 11:57:28;;;;;;;2.97;1.63;;;;;;;10.63;100.00;100981.16;7374851;19;20101;-71
2022/11/04 12:00:05;;;;;;;2.08;1.33;;;;;;;10.72;100.00;100978.69;7379108;19;20013;-72
2022/11/04 12:03:05;;;;;;;2.42;1.63;;;;;;;10.77;100.00;100989.25;7373529;19;20098;-72
2022/11/04 12:05:43;;;;;;;3.15;1.60;;;;;;;10.71;100.00;100995.28;7376646;19;20015;-71
2022/11/04 12:08:57;;;;;;;3.38;1.20;;;;;;;10.67;100.00;100992.59;7378299;19;20023;-72
2022/11/04 12:11:56;;;;;;;2.45;1.52;;;;;;;10.64;100.00;100982.94;7379391;19;20094;-72
2022/11/04 12:14:35;;;;;;;;;;;;;;;10.70;100.00;100976.88;7377792;19;20117;-72
2022/11/04 12:17:16;;;;;;;1.55;1.38;;;;;;;10.76;100.00;100975.25;7378650;19;19940;-72
2022/11/04 12:20:04;;;;;;;3.35;1.50;;;;;;;10.77;100.00;100984.88;7377092;19;20014;-72